Sid Moller — WDF9421 — position and weather

sailwx.info

Track history (hours):
 
Tides and Currents Weather Stations Pressure Air Temp Water Temp Dewpoint Dewpoint Depression Visibility Wind Speed Wind Dir Waves Ship Positions

Sid Moller

Owner: Genesis Marine, LLC, Houston, TX. More information available from US FCC via Universal Licensing System and Coast Guard Vessel Documentation Center.

Last reported at 2016-Nov-20 12:33 UTC. Time now 2016-Dec-08 07:53 UTC.
Position N 29°58' W 090°15'.
Warning: this ship's position is 17 days out of date.

Length 28 m; draft 3.3 m.

Type: Towing. MMSI: 367504980.

Date/timePositionNaut miles runAvg speedWind from/ knotsBaromVisibWave heightAir tempDewpointWater temp
2016-Nov-20 12:33N 29°58' W 090°15'85 2.0
2016-Nov-18 17:07N 29°51' W 091°53'16 6.2
2016-Nov-18 14:34N 29°47' W 092°10'3 1.5
2016-Nov-18 12:33N 29°48' W 092°14'1 1.0
2016-Nov-18 11:33N 29°48' W 092°15'6 2.8
2016-Nov-18 09:34N 29°51' W 092°20'8 3.7
2016-Nov-18 07:29N 29°54' W 092°29'32 5.4
2016-Nov-18 01:32N 29°56' W 093°05'5 5.0
2016-Nov-18 00:33N 29°58' W 093°11'5 4.7
2016-Nov-17 23:33N 30°01' W 093°14'0 0.0
2016-Nov-17 22:33N 30°01' W 093°14'0 0.0
2016-Nov-17 21:33N 30°01' W 093°14'0 0.0
2016-Nov-17 19:33N 30°01' W 093°14'0 0.0
2016-Nov-17 18:33N 30°01' W 093°14'6 1.6
2016-Nov-17 14:33N 30°06' W 093°19'0 0.0
2016-Nov-17 13:33N 30°06' W 093°19'0 0.0
2016-Nov-17 12:33N 30°06' W 093°19'4 4.0
2016-Nov-17 11:33N 30°04' W 093°22'18 5.9
2016-Nov-17 08:32N 30°03' W 093°43'12 6.0
2016-Nov-17 06:33N 29°55' W 093°53'57 5.1
2016-Nov-16 19:15N 29°27' W 094°51'6 8.2
2016-Nov-16 18:33N 29°32' W 094°54'7 7.4
2016-Nov-16 17:33N 29°38' W 094°58'6 6.3
2016-Nov-16 16:33N 29°44' W 095°02'6 0.7
2016-Nov-16 08:23N 29°44' W 095°08'0 0.0
2016-Nov-16 07:26N 29°44' W 095°08'0 0.0
2016-Nov-16 06:21N 29°44' W 095°08'1 0.0
2016-Nov-14 19:15N 29°44' W 095°07'7 4.0
2016-Nov-14 17:33N 29°42' W 094°60'6 5.8
2016-Nov-14 16:33N 29°36' W 094°57'6 6.5
2016-Nov-14 15:33N 29°31' W 094°53'10 2.4
2016-Nov-14 11:33N 29°24' W 094°45'74 3.7
2016-Nov-13 15:33N 30°04' W 093°34'9 4.3
2016-Nov-13 13:33N 30°04' W 093°24'8 2.6
2016-Nov-13 10:33N 30°02' W 093°15'8 4.0
2016-Nov-13 08:33N 29°56' W 093°08'37 4.1
2016-Nov-12 23:32N 29°53' W 092°26'8 3.8
2016-Nov-12 21:33N 29°50' W 092°18'8 4.0
2016-Nov-12 19:33N 29°47' W 092°10'9 4.3
2016-Nov-12 17:33N 29°50' W 092°01'4 4.2
2016-Nov-12 16:31N 29°51' W 091°56'4 4.1
2016-Nov-12 15:33N 29°51' W 091°51'4 3.7
2016-Nov-12 14:33N 29°47' W 091°49'4 3.8
2016-Nov-12 13:33N 29°46' W 091°45'4 3.9
2016-Nov-12 12:31N 29°46' W 091°40'37 3.9
2016-Nov-12 03:04N 29°37' W 090°59'2 4.3
2016-Nov-12 02:33N 29°35' W 090°58'8 4.0
2016-Nov-12 00:33N 29°32' W 090°49'4 3.7
2016-Nov-11 23:33N 29°33' W 090°45'11 2.8
2016-Nov-11 19:33N 29°34' W 090°32'  
Track history (hours):
 
Tides and Currents Weather Stations Pressure Air Temp Water Temp Dewpoint Dewpoint Depression Visibility Wind Speed Wind Dir Waves Ship Positions

Sid Moller

Owner: Genesis Marine, LLC, Houston, TX. More information available from US FCC via Universal Licensing System and Coast Guard Vessel Documentation Center.

Last reported at 2016-Nov-20 12:33 UTC. Time now 2016-Dec-08 07:53 UTC.
Position N 29°58' W 090°15'.
Warning: this ship's position is 17 days out of date.

Length 28 m; draft 3.3 m.

Type: Towing. MMSI: 367504980.

Date/timePositionNaut miles runAvg speedWind from/ knotsBaromVisibWave heightAir tempDewpointWater temp
2016-Nov-20 12:33N 29°58' W 090°15'85 2.0
2016-Nov-18 17:07N 29°51' W 091°53'16 6.2
2016-Nov-18 14:34N 29°47' W 092°10'3 1.5
2016-Nov-18 12:33N 29°48' W 092°14'1 1.0
2016-Nov-18 11:33N 29°48' W 092°15'6 2.8
2016-Nov-18 09:34N 29°51' W 092°20'8 3.7
2016-Nov-18 07:29N 29°54' W 092°29'32 5.4
2016-Nov-18 01:32N 29°56' W 093°05'5 5.0
2016-Nov-18 00:33N 29°58' W 093°11'5 4.7
2016-Nov-17 23:33N 30°01' W 093°14'0 0.0
2016-Nov-17 22:33N 30°01' W 093°14'0 0.0
2016-Nov-17 21:33N 30°01' W 093°14'0 0.0
2016-Nov-17 19:33N 30°01' W 093°14'0 0.0
2016-Nov-17 18:33N 30°01' W 093°14'6 1.6
2016-Nov-17 14:33N 30°06' W 093°19'0 0.0
2016-Nov-17 13:33N 30°06' W 093°19'0 0.0
2016-Nov-17 12:33N 30°06' W 093°19'4 4.0
2016-Nov-17 11:33N 30°04' W 093°22'18 5.9
2016-Nov-17 08:32N 30°03' W 093°43'12 6.0
2016-Nov-17 06:33N 29°55' W 093°53'57 5.1
2016-Nov-16 19:15N 29°27' W 094°51'6 8.2
2016-Nov-16 18:33N 29°32' W 094°54'7 7.4
2016-Nov-16 17:33N 29°38' W 094°58'6 6.3
2016-Nov-16 16:33N 29°44' W 095°02'6 0.7
2016-Nov-16 08:23N 29°44' W 095°08'0 0.0
2016-Nov-16 07:26N 29°44' W 095°08'0 0.0
2016-Nov-16 06:21N 29°44' W 095°08'1 0.0
2016-Nov-14 19:15N 29°44' W 095°07'7 4.0
2016-Nov-14 17:33N 29°42' W 094°60'6 5.8
2016-Nov-14 16:33N 29°36' W 094°57'6 6.5
2016-Nov-14 15:33N 29°31' W 094°53'10 2.4
2016-Nov-14 11:33N 29°24' W 094°45'74 3.7
2016-Nov-13 15:33N 30°04' W 093°34'9 4.3
2016-Nov-13 13:33N 30°04' W 093°24'8 2.6
2016-Nov-13 10:33N 30°02' W 093°15'8 4.0
2016-Nov-13 08:33N 29°56' W 093°08'37 4.1
2016-Nov-12 23:32N 29°53' W 092°26'8 3.8
2016-Nov-12 21:33N 29°50' W 092°18'8 4.0
2016-Nov-12 19:33N 29°47' W 092°10'9 4.3
2016-Nov-12 17:33N 29°50' W 092°01'4 4.2
2016-Nov-12 16:31N 29°51' W 091°56'4 4.1
2016-Nov-12 15:33N 29°51' W 091°51'4 3.7
2016-Nov-12 14:33N 29°47' W 091°49'4 3.8
2016-Nov-12 13:33N 29°46' W 091°45'4 3.9
2016-Nov-12 12:31N 29°46' W 091°40'37 3.9
2016-Nov-12 03:04N 29°37' W 090°59'2 4.3
2016-Nov-12 02:33N 29°35' W 090°58'8 4.0
2016-Nov-12 00:33N 29°32' W 090°49'4 3.7
2016-Nov-11 23:33N 29°33' W 090°45'11 2.8
2016-Nov-11 19:33N 29°34' W 090°32'  

Dump ship's entire track history